Time;durP1;ratioP1;P1;durP2;ratioP2;P2;SDS_P1;SDS_P2;PMS_P1;PMS_P2;Temp;Humidity;BMP_temperature;BMP_pressure;BME280_temperature;BME280_humidity;BME280_pressure;Samples;Min_cycle;Max_cycle;Signal;HPM_P1;HPM_P2
2021/05/07 00:00:29;;;;;;;;;;;;;;;20.41;33.80;99012.22;4415333;32;19991;-51
2021/05/07 00:02:55;;;;;;;;;;;;;;;20.41;34.03;99020.16;4429156;32;19964;-55
2021/05/07 00:05:21;;;;;;;;;;;;;;;20.43;33.53;99018.37;4430981;32;19948;-55
2021/05/07 00:07:47;;;;;;;;;;;;;;;20.44;33.77;99014.88;4419643;32;19949;-56
2021/05/07 00:10:13;;;;;;;;;;;;;;;20.45;33.94;99007.78;4414207;32;20348;-55
2021/05/07 00:12:39;;;;;;;;;;;;;;;20.39;33.99;99011.38;4426449;32;19966;-55
2021/05/07 00:15:05;;;;;;;;;;;;;;;20.38;33.71;99017.56;4430996;32;20289;-55
2021/05/07 00:17:31;;;;;;;;;;;;;;;20.43;33.64;99018.37;4422353;32;20194;-53
2021/05/07 00:19:57;;;;;;;;;;;;;;;20.48;33.52;99019.22;4415829;32;19950;-56
2021/05/07 00:22:23;;;;;;;;;;;;;;;20.48;33.72;99011.28;4422237;32;20041;-55
2021/05/07 00:24:49;;;;;;;;;;;;;;;20.45;33.74;99018.37;4430605;32;19989;-53
2021/05/07 00:27:17;;;;;;;;;;;;;;;20.50;33.58;99027.16;4420926;32;19966;-56
2021/05/07 00:29:43;;;;;;;;;;;;;;;20.50;33.32;99025.37;4423734;32;19975;-54
2021/05/07 00:32:09;;;;;;;;;;;;;;;20.44;33.55;99028.09;4424791;32;20278;-57
2021/05/07 00:34:35;;;;;;;;;;;;;;;20.46;33.69;99028.94;4425007;32;19934;-55
2021/05/07 00:37:01;;;;;;;;;;;;;;;20.43;33.77;99028.09;4424360;32;20317;-56
2021/05/07 00:39:26;;;;;;;;;;;;;;;20.38;33.80;99036.06;4424427;32;19988;-55
2021/05/07 00:41:52;;;;;;;;;;;;;;;20.42;33.66;99037.78;4425761;32;19960;-56
2021/05/07 00:44:18;;;;;;;;;;;;;;;20.44;33.51;99037.78;4424026;32;19985;-56
2021/05/07 00:46:44;;;;;;;;;;;;;;;20.46;33.63;99039.53;4424087;32;20259;-56
2021/05/07 00:49:11;;;;;;;;;;;;;;;20.45;33.69;99037.78;4422638;32;19958;-55
2021/05/07 00:51:37;;;;;;;;;;;;;;;20.48;33.84;99036.84;4423915;32;19966;-57
2021/05/07 00:54:03;;;;;;;;;;;;;;;20.50;33.40;99033.31;4422264;32;20305;-53
2021/05/07 00:56:28;;;;;;;;;;;;;;;20.48;33.35;99032.44;4422512;32;20041;-54
2021/05/07 00:58:54;;;;;;;;;;;;;;;20.46;33.39;99031.59;4430121;32;19945;-56
2021/05/07 01:01:20;;;;;;;;;;;;;;;20.43;33.60;99034.25;4432056;32;19949;-56
2021/05/07 01:03:46;;;;;;;;;;;;;;;20.40;33.54;99034.28;4420579;32;19968;-55
2021/05/07 01:06:12;;;;;;;;;;;;;;;20.43;33.70;99034.25;4416316;32;19957;-55
2021/05/07 01:08:38;;;;;;;;;;;;;;;20.48;33.73;99031.56;4426686;32;19989;-56
2021/05/07 01:11:04;;;;;;;;;;;;;;;20.41;33.72;99029.88;4430984;32;19954;-55
2021/05/07 01:13:30;;;;;;;;;;;;;;;20.45;33.79;99031.59;4423004;32;19994;-55
2021/05/07 01:15:56;;;;;;;;;;;;;;;20.44;33.86;99030.72;4418959;32;19991;-56
2021/05/07 01:18:22;;;;;;;;;;;;;;;20.49;33.34;99038.59;4425630;32;19942;-56
2021/05/07 01:20:50;;;;;;;;;;;;;;;20.41;33.86;99036.03;4418217;32;19950;-55
2021/05/07 01:23:16;;;;;;;;;;;;;;;20.45;33.54;99037.78;4426381;32;20411;-54
2021/05/07 01:25:42;;;;;;;;;;;;;;;20.44;33.51;99046.59;4433958;32;19938;-55
2021/05/07 01:28:08;;;;;;;;;;;;;;;20.38;33.76;99045.78;4414898;32;20284;-56
2021/05/07 01:30:34;;;;;;;;;;;;;;;20.41;33.78;99043.09;4404695;32;19939;-55
2021/05/07 01:33:00;;;;;;;;;;;;;;;20.38;33.80;99051.06;4408625;32;19965;-55
2021/05/07 01:35:26;;;;;;;;;;;;;;;20.43;33.53;99049.25;4404236;32;19959;-55
2021/05/07 01:37:52;;;;;;;;;;;;;;;20.46;33.45;99060.69;4406106;32;20369;-56
2021/05/07 01:40:18;;;;;;;;;;;;;;;20.43;33.53;99065.09;4417885;32;20013;-55
2021/05/07 01:42:43;;;;;;;;;;;;;;;20.41;33.67;99056.31;4419000;32;19973;-55
2021/05/07 01:45:09;;;;;;;;;;;;;;;20.38;33.61;99059.00;4404200;32;20312;-56
2021/05/07 01:47:35;;;;;;;;;;;;;;;20.36;33.83;99051.06;4413172;32;19954;-54
2021/05/07 01:50:01;;;;;;;;;;;;;;;20.42;33.45;99055.44;4419201;32;19946;-56
2021/05/07 01:52:27;;;;;;;;;;;;;;;20.38;33.67;99057.22;4417961;32;20077;-56
2021/05/07 01:54:53;;;;;;;;;;;;;;;20.42;33.44;99058.06;4405104;32;20185;-56
2021/05/07 01:57:19;;;;;;;;;;;;;;;20.41;33.53;99057.19;4403796;32;19969;-57
2021/05/07 01:59:45;;;;;;;;;;;;;;;20.36;33.53;99062.50;4415643;32;19937;-56
2021/05/07 02:02:11;;;;;;;;;;;;;;;20.38;33.57;99073.06;4418586;32;20019;-56
2021/05/07 02:04:37;;;;;;;;;;;;;;;20.41;33.65;99061.59;4408818;32;20365;-56
2021/05/07 02:07:03;;;;;;;;;;;;;;;20.42;33.81;99064.22;4403327;32;20016;-54
2021/05/07 02:09:28;;;;;;;;;;;;;;;20.40;33.34;99071.28;4412584;32;19938;-57
2021/05/07 02:11:54;;;;;;;;;;;;;;;20.35;33.59;99067.81;4418080;32;19988;-56
2021/05/07 02:14:20;;;;;;;;;;;;;;;20.32;33.58;99079.28;4411215;32;19946;-53
2021/05/07 02:16:46;;;;;;;;;;;;;;;20.31;33.67;99077.53;4406381;32;19962;-55
2021/05/07 02:19:12;;;;;;;;;;;;;;;20.31;33.80;99082.81;4418026;32;19955;-56
2021/05/07 02:21:38;;;;;;;;;;;;;;;20.37;33.97;99081.91;4418631;32;20008;-53
2021/05/07 02:24:04;;;;;;;;;;;;;;;20.36;33.47;99086.28;4413012;32;20000;-57
2021/05/07 02:26:30;;;;;;;;;;;;;;;20.36;33.76;99085.44;4402824;32;19965;-56
2021/05/07 02:28:56;;;;;;;;;;;;;;;20.37;33.75;99087.19;4406491;32;19962;-56
2021/05/07 02:31:22;;;;;;;;;;;;;;;20.32;33.73;99094.28;4418536;32;20308;-56
2021/05/07 02:33:47;;;;;;;;;;;;;;;20.33;33.60;99088.97;4416235;32;19939;-56
2021/05/07 02:36:13;;;;;;;;;;;;;;;20.35;33.63;99096.91;4402730;32;20014;-56
2021/05/07 02:38:41;;;;;;;;;;;;;;;20.30;33.80;99102.22;4403646;32;19998;-54
2021/05/07 02:41:07;;;;;;;;;;;;;;;20.28;33.69;99103.13;4417804;32;19947;-56
2021/05/07 02:43:33;;;;;;;;;;;;;;;20.28;33.88;99103.13;4418602;32;19960;-56
2021/05/07 02:45:59;;;;;;;;;;;;;;;20.31;33.74;99111.00;4403592;32;19935;-55
2021/05/07 02:48:25;;;;;;;;;;;;;;;20.31;33.69;99126.88;4416421;32;19950;-56
2021/05/07 02:50:51;;;;;;;;;;;;;;;20.30;33.82;99136.59;4417722;32;20357;-56
2021/05/07 02:53:16;;;;;;;;;;;;;;;20.27;33.84;99139.28;4417961;32;19946;-56
2021/05/07 02:55:42;;;;;;;;;;;;;;;20.24;33.75;99135.75;4405080;32;20305;-57
2021/05/07 02:58:08;;;;;;;;;;;;;;;20.24;33.77;99141.03;4402660;32;20456;-57
2021/05/07 03:00:34;;;;;;;;;;;;;;;20.21;33.92;99148.13;4414174;32;20014;-57
2021/05/07 03:03:00;;;;;;;;;;;;;;;20.18;33.79;99152.53;4418777;32;19990;-56
2021/05/07 03:05:26;;;;;;;;;;;;;;;20.23;33.93;99148.09;4408135;32;20341;-57
2021/05/07 03:07:52;;;;;;;;;;;;;;;20.29;33.69;99142.78;4402796;32;19955;-56
2021/05/07 03:10:18;;;;;;;;;;;;;;;20.25;33.79;99137.50;4409445;32;19954;-57
2021/05/07 03:12:43;;;;;;;;;;;;;;;20.21;33.86;99145.47;4418402;32;19992;-55
2021/05/07 03:15:09;;;;;;;;;;;;;;;20.27;33.79;99148.94;4411178;32;20362;-56
2021/05/07 03:17:36;;;;;;;;;;;;;;;20.23;33.71;99156.00;4410961;32;20002;-56
2021/05/07 03:20:02;;;;;;;;;;;;;;;20.18;33.97;99155.19;4417196;32;20315;-56
2021/05/07 03:22:28;;;;;;;;;;;;;;;20.21;33.79;99156.03;4417102;32;20497;-56
2021/05/07 03:24:54;;;;;;;;;;;;;;;20.16;33.72;99151.66;4413634;32;20000;-56
2021/05/07 03:27:20;;;;;;;;;;;;;;;20.16;33.82;99157.81;4402104;32;19946;-56
2021/05/07 03:29:45;;;;;;;;;;;;;;;20.19;33.83;99163.09;4404842;32;19946;-56
2021/05/07 03:32:11;;;;;;;;;;;;;;;20.20;33.76;99164.88;4417632;32;20298;-55
2021/05/07 03:34:37;;;;;;;;;;;;;;;20.16;33.80;99167.53;4416675;32;19961;-56
2021/05/07 03:37:03;;;;;;;;;;;;;;;20.20;33.64;99178.09;4401472;32;19984;-55
2021/05/07 03:39:29;;;;;;;;;;;;;;;20.17;33.79;99183.38;4401485;32;19974;-56
2021/05/07 03:41:55;;;;;;;;;;;;;;;20.22;33.84;99185.97;4417536;32;19958;-55
2021/05/07 03:44:21;;;;;;;;;;;;;;;20.22;33.66;99188.62;4417771;32;19950;-55
2021/05/07 03:46:47;;;;;;;;;;;;;;;20.20;33.73;99193.94;4406075;32;19961;-57
2021/05/07 03:49:12;;;;;;;;;;;;;;;20.22;33.79;99199.19;4416508;32;19964;-57
2021/05/07 03:51:38;;;;;;;;;;;;;;;20.10;33.88;99208.09;4417260;32;20015;-56
2021/05/07 03:54:04;;;;;;;;;;;;;;;20.13;33.88;99208.06;4416963;32;19938;-56
2021/05/07 03:56:30;;;;;;;;;;;;;;;20.17;33.77;99209.78;4406075;32;19954;-57
2021/05/07 03:58:56;;;;;;;;;;;;;;;20.20;33.54;99212.44;4402151;32;19958;-55
2021/05/07 04:01:24;;;;;;;;;;;;;;;20.16;33.78;99210.69;4411817;32;25026;-57
2021/05/07 04:03:50;;;;;;;;;;;;;;;20.18;33.72;99214.19;4417921;32;19946;-57
2021/05/07 04:06:18;;;;;;;;;;;;;;;20.16;33.62;99221.25;4407231;32;20218;-57
2021/05/07 04:08:50;;;;;;;;;;;;;;;20.16;33.78;99225.69;4401841;32;19963;-57
2021/05/07 04:13:46;;;;;;;;;;;;;;;20.10;33.87;99237.16;4417791;32;19954;-52
2021/05/07 04:16:12;;;;;;;;;;;;;;;20.11;33.75;99238.91;4410235;32;20268;-57
2021/05/07 04:18:38;;;;;;;;;;;;;;;20.08;33.73;99249.50;4400764;32;20001;-56
2021/05/07 04:21:04;;;;;;;;;;;;;;;20.08;33.74;99250.38;4405012;32;19994;-56
2021/05/07 04:23:30;;;;;;;;;;;;;;;20.13;33.60;99245.06;4417233;32;19999;-57
2021/05/07 04:25:56;;;;;;;;;;;;;;;20.14;33.58;99257.41;4412270;32;19973;-57
2021/05/07 04:28:22;;;;;;;;;;;;;;;20.14;33.70;99254.75;4402390;32;20368;-57
2021/05/07 04:30:48;;;;;;;;;;;;;;;20.04;33.71;99258.31;4404492;32;20041;-57
2021/05/07 04:33:13;;;;;;;;;;;;;;;20.08;33.78;99265.38;4416940;32;20002;-57
2021/05/07 04:35:39;;;;;;;;;;;;;;;20.11;33.67;99265.34;4415537;32;20013;-56
2021/05/07 04:38:05;;;;;;;;;;;;;;;20.12;33.55;99276.78;4401236;32;19951;-57
2021/05/07 04:40:31;;;;;;;;;;;;;;;20.10;33.61;99275.91;4400695;32;19969;-56
2021/05/07 04:43:01;;;;;;;;;;;;;;;20.07;33.62;99287.41;4416486;32;19954;-55
2021/05/07 04:45:26;;;;;;;;;;;;;;;20.09;33.62;99298.84;4416690;32;19950;-56
2021/05/07 04:47:52;;;;;;;;;;;;;;;20.08;33.76;99294.44;4408212;32;20017;-56
2021/05/07 04:50:18;;;;;;;;;;;;;;;20.08;33.64;99297.09;4416982;32;19989;-56
2021/05/07 04:52:44;;;;;;;;;;;;;;;20.07;33.63;99300.63;4419546;32;19997;-55
2021/05/07 04:55:10;;;;;;;;;;;;;;;20.13;33.55;99303.22;4419102;32;20010;-56
2021/05/07 04:57:36;;;;;;;;;;;;;;;20.15;33.55;99303.22;4408654;32;20296;-56
2021/05/07 05:00:02;;;;;;;;;;;;;;;20.11;33.67;99312.03;4404309;32;20008;-57
2021/05/07 05:02:29;;;;;;;;;;;;;;;20.06;33.76;99319.97;4414318;32;20172;-52
2021/05/07 05:04:55;;;;;;;;;;;;;;;20.04;33.78;99317.34;4419470;32;19958;-56
2021/05/07 05:07:21;;;;;;;;;;;;;;;20.04;33.71;99321.75;4409937;32;19961;-57
2021/05/07 05:09:47;;;;;;;;;;;;;;;20.07;33.69;99329.69;4403307;32;19962;-55
2021/05/07 05:12:12;;;;;;;;;;;;;;;20.14;33.58;99330.53;4411479;32;19935;-57
2021/05/07 05:14:38;;;;;;;;;;;;;;;20.06;33.95;99330.53;4419655;32;19990;-54
2021/05/07 05:17:04;;;;;;;;;;;;;;;20.04;33.63;99327.03;4412922;32;19963;-54
2021/05/07 05:19:30;;;;;;;;;;;;;;;20.06;33.68;99335.81;4414725;32;19958;-55
2021/05/07 05:21:56;;;;;;;;;;;;;;;20.09;33.56;99335.84;4419540;32;19954;-55
2021/05/07 05:24:22;;;;;;;;;;;;;;;20.06;33.64;99343.75;4418837;32;19938;-56
2021/05/07 05:26:48;;;;;;;;;;;;;;;20.03;33.75;99343.75;4419164;32;19958;-56
2021/05/07 05:29:14;;;;;;;;;;;;;;;20.10;33.62;99342.88;4418489;32;20342;-55
2021/05/07 05:31:40;;;;;;;;;;;;;;;20.07;33.61;99342.91;4420147;32;19961;-56
2021/05/07 05:34:06;;;;;;;;;;;;;;;20.08;33.58;99349.94;4419563;32;19955;-55
2021/05/07 05:36:32;;;;;;;;;;;;;;;20.03;33.77;99352.59;4418667;32;19965;-55
2021/05/07 05:38:58;;;;;;;;;;;;;;;20.09;33.62;99356.97;4419220;32;19973;-57
2021/05/07 05:41:24;;;;;;;;;;;;;;;20.08;33.66;99360.50;4418445;32;19979;-54
2021/05/07 05:43:50;;;;;;;;;;;;;;;20.12;33.50;99367.53;4405054;32;19958;-56
2021/05/07 05:46:16;;;;;;;;;;;;;;;20.09;33.69;99367.56;4403988;32;20400;-56
2021/05/07 05:48:42;;;;;;;;;;;;;;;20.07;33.70;99369.31;4416104;32;19960;-56
2021/05/07 05:51:07;;;;;;;;;;;;;;;20.10;33.63;99374.59;4415683;32;19957;-56
2021/05/07 05:53:33;;;;;;;;;;;;;;;20.11;33.53;99371.06;4417961;32;19984;-56
2021/05/07 05:55:59;;;;;;;;;;;;;;;20.09;33.61;99378.13;4417696;32;19953;-56
2021/05/07 05:58:25;;;;;;;;;;;;;;;20.05;33.67;99382.53;4417996;32;19994;-54
2021/05/07 06:00:51;;;;;;;;;;;;;;;20.16;33.41;99379.84;4418338;32;19954;-54
2021/05/07 06:03:17;;;;;;;;;;;;;;;20.12;33.57;99386.03;4417610;32;19938;-57
2021/05/07 06:05:43;;;;;;;;;;;;;;;20.13;33.60;99392.22;4418482;32;19958;-57
2021/05/07 06:08:09;;;;;;;;;;;;;;;20.10;33.58;99390.44;4418397;32;20290;-55
2021/05/07 06:10:36;;;;;;;;;;;;;;;20.10;33.57;99395.75;4416975;32;19950;-56
2021/05/07 06:13:02;;;;;;;;;;;;;;;20.03;33.76;99383.41;4418785;32;19959;-50
2021/05/07 06:15:28;;;;;;;;;;;;;;;20.04;33.67;99391.34;4418516;32;19965;-57
2021/05/07 06:17:54;;;;;;;;;;;;;;;20.03;33.77;99399.25;4418131;32;19981;-56
2021/05/07 06:20:20;;;;;;;;;;;;;;;20.07;33.64;99401.03;4417272;32;19946;-57
2021/05/07 06:22:47;;;;;;;;;;;;;;;20.14;33.60;99405.41;4418488;32;20319;-56
2021/05/07 06:25:13;;;;;;;;;;;;;;;20.12;33.59;99404.53;4416331;32;19954;-57
2021/05/07 06:27:39;;;;;;;;;;;;;;;20.18;33.50;99412.44;4416394;32;20004;-55
2021/05/07 06:30:05;;;;;;;;;;;;;;;20.14;33.45;99418.62;4417885;32;21031;-55
2021/05/07 06:32:31;;;;;;;;;;;;;;;20.14;33.57;99413.34;4415466;32;19954;-56
2021/05/07 06:34:56;;;;;;;;;;;;;;;20.14;33.52;99418.62;4418220;32;19969;-55
2021/05/07 06:37:22;;;;;;;;;;;;;;;20.20;33.39;99423.91;4417316;32;20463;-56
2021/05/07 06:39:48;;;;;;;;;;;;;;;20.13;33.49;99418.66;4417757;32;20003;-56
2021/05/07 06:42:14;;;;;;;;;;;;;;;20.16;33.50;99422.16;4416637;32;19988;-57
2021/05/07 06:44:40;;;;;;;;;;;;;;;20.08;33.62;99429.22;4417490;32;19966;-55
2021/05/07 06:47:06;;;;;;;;;;;;;;;20.07;33.69;99424.81;4417219;32;19954;-56
2021/05/07 06:49:32;;;;;;;;;;;;;;;20.10;33.61;99422.16;4417146;32;19994;-56
2021/05/07 06:51:58;;;;;;;;;;;;;;;20.08;33.61;99429.22;4417882;32;19954;-56
2021/05/07 06:54:27;;;;;;;;;;;;;;;20.12;33.53;99425.69;4417039;32;19958;-57
2021/05/07 06:56:53;;;;;;;;;;;;;;;20.15;33.44;99430.97;4416596;32;19961;-55
2021/05/07 06:59:19;;;;;;;;;;;;;;;20.11;33.54;99429.22;4410003;32;19990;-56
2021/05/07 07:01:45;;;;;;;;;;;;;;;20.12;33.55;99433.62;4418072;32;19962;-55
2021/05/07 07:04:11;;;;;;;;;;;;;;;20.17;33.48;99447.69;4416619;32;19993;-55
2021/05/07 07:06:37;;;;;;;;;;;;;;;20.20;33.41;99434.50;4417716;32;20026;-54
2021/05/07 07:09:03;;;;;;;;;;;;;;;20.17;33.49;99445.03;4415198;32;20410;-54
2021/05/07 07:11:29;;;;;;;;;;;;;;;20.13;33.55;99438.00;4408897;32;19981;-56
2021/05/07 07:13:54;;;;;;;;;;;;;;;20.17;33.48;99444.19;4415683;32;20343;-54
2021/05/07 07:16:20;;;;;;;;;;;;;;;20.17;33.49;99455.62;4414692;32;19983;-56
2021/05/07 07:18:46;;;;;;;;;;;;;;;20.16;33.63;99445.06;4415155;32;19973;-56
2021/05/07 07:21:12;;;;;;;;;;;;;;;20.19;33.51;99463.56;4415764;32;20365;-56
2021/05/07 07:23:38;;;;;;;;;;;;;;;20.25;33.47;99457.38;4414559;32;19985;-57
2021/05/07 07:26:05;;;;;;;;;;;;;;;20.21;33.50;99462.69;4413906;32;20025;-56
2021/05/07 07:28:31;;;;;;;;;;;;;;;20.17;33.58;99465.31;4409220;32;19982;-55
2021/05/07 07:30:57;;;;;;;;;;;;;;;20.19;33.54;99464.44;4415171;32;19954;-55
2021/05/07 07:33:23;;;;;;;;;;;;;;;20.19;33.56;99469.75;4414300;32;20041;-56
2021/05/07 07:35:49;;;;;;;;;;;;;;;20.14;33.64;99471.50;4415031;32;20397;-55
2021/05/07 07:38:15;;;;;;;;;;;;;;;20.16;33.76;99464.44;4415472;32;19972;-53
2021/05/07 07:40:41;;;;;;;;;;;;;;;20.20;33.59;99466.22;4399242;32;20018;-55
2021/05/07 07:43:07;;;;;;;;;;;;;;;20.25;33.49;99462.66;4396607;32;20013;-57
2021/05/07 07:45:33;;;;;;;;;;;;;;;20.20;33.59;99471.50;4413317;32;20034;-57
2021/05/07 07:47:59;;;;;;;;;;;;;;;20.19;33.60;99475.03;4414714;32;19997;-55
2021/05/07 07:50:25;;;;;;;;;;;;;;;20.19;33.62;99469.75;4403317;32;19954;-54
2021/05/07 07:52:51;;;;;;;;;;;;;;;20.20;33.59;99471.50;4399452;32;19947;-57
2021/05/07 07:55:16;;;;;;;;;;;;;;;20.20;33.61;99470.59;4404937;32;19992;-54
2021/05/07 07:57:42;;;;;;;;;;;;;;;20.21;33.59;99478.53;4414848;32;20380;-56
2021/05/07 08:00:08;;;;;;;;;;;;;;;20.22;33.56;99479.41;4413855;32;20008;-54
2021/05/07 08:02:34;;;;;;;;;;;;;;;20.24;33.59;99482.06;4414100;32;19970;-56
2021/05/07 08:05:00;;;;;;;;;;;;;;;20.26;33.54;99490.87;4414950;32;20339;-55
2021/05/07 08:07:26;;;;;;;;;;;;;;;20.29;33.50;99496.16;4415044;32;19977;-57
2021/05/07 08:09:52;;;;;;;;;;;;;;;20.28;33.52;99494.38;4413020;32;19962;-53
2021/05/07 08:12:18;;;;;;;;;;;;;;;20.26;33.55;99497.06;4412868;32;19958;-52
2021/05/07 08:14:43;;;;;;;;;;;;;;;20.27;33.54;99504.09;4415612;32;19962;-57
2021/05/07 08:17:09;;;;;;;;;;;;;;;20.30;33.47;99497.91;4414638;32;20368;-53
2021/05/07 08:19:35;;;;;;;;;;;;;;;20.28;33.48;99503.22;4410722;32;19973;-55
2021/05/07 08:22:01;;;;;;;;;;;;;;;20.27;33.53;99495.28;4399666;32;19954;-54
2021/05/07 08:24:27;;;;;;;;;;;;;;;20.30;33.47;99497.91;4400389;32;19946;-55
2021/05/07 08:26:53;;;;;;;;;;;;;;;20.31;33.46;99489.09;4413609;32;20319;-56
2021/05/07 08:29:19;;;;;;;;;;;;;;;20.32;33.46;99490.87;4418695;32;19988;-54
2021/05/07 08:31:45;;;;;;;;;;;;;;;20.33;33.43;99490.00;4398976;32;20371;-54
2021/05/07 08:34:11;;;;;;;;;;;;;;;20.34;33.40;99494.41;4418259;32;19986;-56
2021/05/07 08:36:37;;;;;;;;;;;;;;;20.32;33.42;99506.75;4407703;32;19958;-55
2021/05/07 08:39:03;;;;;;;;;;;;;;;20.14;30.83;99492.63;4400357;32;19973;-57
2021/05/07 08:41:29;;;;;;;;;;;;;;;18.85;31.32;99504.66;4407444;32;20010;-58
2021/05/07 08:43:55;;;;;;;;;;;;;;;18.62;30.58;99505.41;4406678;32;19986;-57
2021/05/07 08:46:21;;;;;;;;;;;;;;;18.35;30.56;99510.50;4410180;32;20378;-58
2021/05/07 08:48:46;;;;;;;;;;;;;;;18.13;32.01;99520.00;4403622;32;20485;-57
2021/05/07 08:51:12;;;;;;;;;;;;;;;18.01;32.37;99533.03;4408110;32;19946;-57
2021/05/07 08:53:38;;;;;;;;;;;;;;;17.70;32.55;99520.47;4411017;32;20366;-55
2021/05/07 08:56:04;;;;;;;;;;;;;;;17.37;33.16;99522.78;4405125;32;19953;-56
2021/05/07 08:58:30;;;;;;;;;;;;;;;17.59;32.52;99532.66;4402226;32;19988;-58
2021/05/07 09:00:56;;;;;;;;;;;;;;;17.97;32.57;99527.75;4410282;32;19961;-58
2021/05/07 09:03:22;;;;;;;;;;;;;;;17.93;31.64;99523.31;4406425;32;20243;-56
2021/05/07 09:05:48;;;;;;;;;;;;;;;17.86;31.33;99512.72;4413592;32;20646;-59
2021/05/07 09:08:14;;;;;;;;;;;;;;;17.36;32.64;99520.09;4415382;32;19968;-51
2021/05/07 09:10:40;;;;;;;;;;;;;;;17.06;33.31;99519.75;4413795;32;19954;-54
2021/05/07 09:13:06;;;;;;;;;;;;;;;17.68;33.16;99525.72;4414932;32;19950;-52
2021/05/07 09:15:32;;;;;;;;;;;;;;;18.19;32.62;99522.69;4418685;32;20006;-53
2021/05/07 09:17:58;;;;;;;;;;;;;;;18.58;32.27;99532.59;4400454;32;19939;-53
2021/05/07 09:20:24;;;;;;;;;;;;;;;18.72;32.12;99530.06;4401303;32;20004;-54
2021/05/07 09:22:49;;;;;;;;;;;;;;;18.69;32.39;99546.75;4415262;32;20286;-48
2021/05/07 09:25:15;;;;;;;;;;;;;;;18.87;32.40;99551.25;4413960;32;19950;-48
2021/05/07 09:27:41;;;;;;;;;;;;;;;19.03;32.24;99544.31;4412724;32;19954;-54
2021/05/07 09:30:07;;;;;;;;;;;;;;;19.18;32.00;99545.25;4390743;32;19980;-51
2021/05/07 09:32:33;;;;;;;;;;;;;;;19.42;31.84;99538.31;4411895;32;19968;-53
2021/05/07 09:34:59;;;;;;;;;;;;;;;19.58;31.74;99542.78;4405628;32;20370;-52
2021/05/07 09:37:25;;;;;;;;;;;;;;;19.62;31.78;99547.19;4414283;32;20009;-48
2021/05/07 09:39:55;;;;;;;;;;;;;;;19.64;31.95;99542.78;4417562;32;20370;-52
2021/05/07 09:42:20;;;;;;;;;;;;;;;19.55;31.91;99545.38;4417198;32;19969;-54
2021/05/07 09:44:46;;;;;;;;;;;;;;;18.89;28.34;99554.78;4417128;32;19950;-52
2021/05/07 09:47:13;;;;;;;;;;;;;;;18.94;31.66;99557.44;4408840;32;19963;-49
2021/05/07 09:49:39;;;;;;;;;;;;;;;19.23;31.62;99577.84;4402745;32;20013;-49
2021/05/07 09:52:05;;;;;;;;;;;;;;;19.40;31.54;99598.16;4411282;32;20256;-49
2021/05/07 09:54:31;;;;;;;;;;;;;;;19.53;31.75;99660.69;4418164;32;19957;-52
2021/05/07 09:56:57;;;;;;;;;;;;;;;19.51;32.10;99676.56;4416146;32;20279;-47
2021/05/07 09:59:22;;;;;;;;;;;;;;;19.54;32.06;99691.50;4419713;32;20029;-54
2021/05/07 10:01:48;;;;;;;;;;;;;;;19.66;32.26;99698.63;4414662;32;19985;-49
2021/05/07 10:04:14;;;;;;;;;;;;;;;19.69;32.24;99684.53;4424067;32;19962;-48
2021/05/07 10:06:40;;;;;;;;;;;;;;;19.76;32.20;99684.59;4417006;32;19954;-49
2021/05/07 10:09:06;;;;;;;;;;;;;;;19.78;32.23;99680.19;4401837;32;19996;-46
2021/05/07 10:11:32;;;;;;;;;;;;;;;19.62;32.73;99684.53;4405019;32;19964;-51
2021/05/07 10:13:58;;;;;;;;;;;;;;;19.67;32.69;99666.91;4417337;32;20564;-49
2021/05/07 10:16:24;;;;;;;;;;;;;;;19.75;32.62;99666.06;4417760;32;19966;-51
2021/05/07 10:18:50;;;;;;;;;;;;;;;19.91;32.44;99672.31;4415976;32;19934;-52
2021/05/07 10:21:16;;;;;;;;;;;;;;;19.97;32.48;99674.13;4415240;32;19995;-52
2021/05/07 10:23:42;;;;;;;;;;;;;;;20.05;32.48;99685.56;4417718;32;19965;-51
2021/05/07 10:26:09;;;;;;;;;;;;;;;20.07;32.60;99686.47;4416819;32;19980;-49
2021/05/07 10:28:34;;;;;;;;;;;;;;;20.02;32.70;99694.41;4400911;32;19968;-56
2021/05/07 10:31:00;;;;;;;;;;;;;;;20.03;32.79;99689.97;4402477;32;19954;-53
2021/05/07 10:33:26;;;;;;;;;;;;;;;20.13;32.65;99702.34;4415029;32;19953;-55
2021/05/07 10:35:52;;;;;;;;;;;;;;;20.06;32.85;99697.91;4421631;32;20290;-56
2021/05/07 10:38:19;;;;;;;;;;;;;;;20.10;32.90;99697.06;4405330;32;20026;-52
2021/05/07 10:40:45;;;;;;;;;;;;;;;20.16;32.80;99694.41;4401259;32;19962;-47
2021/05/07 10:43:10;;;;;;;;;;;;;;;20.18;32.86;99705.88;4411912;32;19952;-50
2021/05/07 10:45:36;;;;;;;;;;;;;;;20.19;32.79;99702.38;4415890;32;19954;-51
2021/05/07 10:48:02;;;;;;;;;;;;;;;20.25;32.77;99709.44;4414764;32;19970;-49
2021/05/07 10:50:28;;;;;;;;;;;;;;;20.21;32.96;99705.00;4415707;32;20178;-47
2021/05/07 10:52:54;;;;;;;;;;;;;;;20.19;33.11;99714.69;4416646;32;19974;-50
2021/05/07 10:55:20;;;;;;;;;;;;;;;20.28;32.79;99722.66;4416183;32;19957;-54
2021/05/07 10:57:46;;;;;;;;;;;;;;;20.31;32.83;99722.66;4409500;32;20347;-48
2021/05/07 11:00:16;;;;;;;;;;;;;;;20.34;32.77;99732.38;4401062;32;19958;-51
2021/05/07 11:02:41;;;;;;;;;;;;;;;20.34;32.84;99721.78;4407099;32;19960;-51
2021/05/07 11:05:07;;;;;;;;;;;;;;;20.37;32.87;99729.72;4416733;32;19962;-52
2021/05/07 11:07:34;;;;;;;;;;;;;;;20.45;32.84;99727.09;4418360;32;19954;-48
2021/05/07 11:10:00;;;;;;;;;;;;;;;20.45;32.78;99725.34;4420781;32;20001;-48
2021/05/07 11:12:26;;;;;;;;;;;;;;;20.45;32.88;99730.62;4408143;32;19969;-50
2021/05/07 11:14:51;;;;;;;;;;;;;;;20.41;32.92;99734.13;4411958;32;19955;-47
2021/05/07 11:17:17;;;;;;;;;;;;;;;20.38;32.97;99738.56;4408586;32;19990;-46
2021/05/07 11:19:43;;;;;;;;;;;;;;;20.35;33.00;99736.78;4415479;32;20018;-46
2021/05/07 11:22:09;;;;;;;;;;;;;;;20.30;33.27;99744.69;4404039;32;19964;-46
2021/05/07 11:24:35;;;;;;;;;;;;;;;20.36;33.06;99754.41;4416162;32;19954;-46
2021/05/07 11:27:02;;;;;;;;;;;;;;;20.42;32.75;99741.19;4401065;32;19951;-51
2021/05/07 11:29:28;;;;;;;;;;;;;;;20.45;32.90;99770.31;4415115;32;20298;-53
2021/05/07 11:31:54;;;;;;;;;;;;;;;20.41;32.94;99759.72;4421518;32;20018;-49
2021/05/07 11:34:20;;;;;;;;;;;;;;;20.44;32.86;99765.91;4412685;32;20322;-52
2021/05/07 11:36:46;;;;;;;;;;;;;;;20.36;33.06;99767.63;4408013;32;20004;-50
2021/05/07 11:39:12;;;;;;;;;;;;;;;20.39;33.10;99769.41;4402461;32;19969;-48
2021/05/07 11:41:38;;;;;;;;;;;;;;;20.40;33.01;99779.97;4421611;32;19958;-51
2021/05/07 11:44:04;;;;;;;;;;;;;;;20.47;32.88;99775.56;4430012;32;20041;-49
2021/05/07 11:46:29;;;;;;;;;;;;;;;20.48;32.78;99786.16;4431731;32;19953;-47
2021/05/07 11:48:55;;;;;;;;;;;;;;;20.44;32.77;99779.13;4418354;32;20343;-49
2021/05/07 11:51:24;;;;;;;;;;;;;;;20.49;32.59;99800.25;4424794;32;19994;-48
2021/05/07 11:53:50;;;;;;;;;;;;;;;20.43;32.61;99792.31;4408904;32;19951;-49
2021/05/07 11:56:16;;;;;;;;;;;;;;;20.44;32.67;99802.91;4415737;32;20408;-50
2021/05/07 11:58:42;;;;;;;;;;;;;;;20.42;32.78;99807.28;4419218;32;19953;-50
2021/05/07 12:01:10;;;;;;;;;;;;;;;20.39;32.67;99804.66;4417395;32;19981;-47
2021/05/07 12:03:35;;;;;;;;;;;;;;;20.42;32.73;99815.22;4425512;32;19958;-50
2021/05/07 12:06:01;;;;;;;;;;;;;;;20.43;32.77;99822.28;4424317;32;19961;-49
2021/05/07 12:08:27;;;;;;;;;;;;;;;20.48;32.64;99820.56;4424294;32;20575;-52
2021/05/07 12:10:53;;;;;;;;;;;;;;;20.41;32.72;99834.63;4423929;32;20298;-47
2021/05/07 12:13:19;;;;;;;;;;;;;;;20.50;32.66;99839.09;4423166;32;20338;-47
2021/05/07 12:15:45;;;;;;;;;;;;;;;20.55;32.45;99836.41;4424505;32;19995;-50
2021/05/07 12:18:11;;;;;;;;;;;;;;;20.61;32.47;99849.69;4423716;32;19976;-47
2021/05/07 12:20:37;;;;;;;;;;;;;;;20.63;32.32;99855.84;4422977;32;20009;-51
2021/05/07 12:23:04;;;;;;;;;;;;;;;20.68;32.12;99859.41;4423765;32;20026;-50
2021/05/07 12:25:29;;;;;;;;;;;;;;;20.58;32.39;99863.78;4424919;32;20382;-48
2021/05/07 12:27:55;;;;;;;;;;;;;;;20.63;32.37;99877.03;4423159;32;19989;-48
2021/05/07 12:30:21;;;;;;;;;;;;;;;20.60;32.06;99877.03;4424635;32;20332;-51
2021/05/07 12:32:47;;;;;;;;;;;;;;;20.68;32.19;99883.22;4409731;32;19950;-51
2021/05/07 12:35:13;;;;;;;;;;;;;;;20.67;32.14;99884.09;4424506;32;20264;-50
2021/05/07 12:37:39;;;;;;;;;;;;;;;20.67;32.08;99899.97;4423714;32;19985;-50
2021/05/07 12:40:05;;;;;;;;;;;;;;;20.49;32.41;99906.97;4422617;32;19958;-48
2021/05/07 12:42:31;;;;;;;;;;;;;;;20.57;32.31;99919.34;4421611;32;19978;-47